Time;durP1;ratioP1;P1;durP2;ratioP2;P2;SDS_P1;SDS_P2;PMS_P1;PMS_P2;Temp;Humidity;BMP_temperature;BMP_pressure;BME280_temperature;BME280_humidity;BME280_pressure;Samples;Min_cycle;Max_cycle;Signal;HPM_P1;HPM_P2
2022/11/12 00:02:05;;;;;;;8.00;5.30;;;7.40;99.90;;;;;;5220696;28;20179;-49
2022/11/12 00:04:36;;;;;;;6.50;5.00;;;7.30;99.90;;;;;;5221043;28;20215;-47
2022/11/12 00:07:06;;;;;;;5.23;4.70;;;7.30;99.90;;;;;;5225081;28;20199;-53
2022/11/12 00:09:37;;;;;;;7.40;4.90;;;7.30;99.90;;;;;;5214090;28;20246;-47
2022/11/12 00:12:08;;;;;;;7.60;4.67;;;7.30;99.90;;;;;;5226344;28;20185;-47
2022/11/12 00:14:38;;;;;;;5.87;4.53;;;7.20;99.90;;;;;;5224432;28;20187;-48
2022/11/12 00:17:09;;;;;;;7.37;5.00;;;7.20;99.90;;;;;;5214596;28;20718;-49
2022/11/12 00:19:39;;;;;;;4.57;4.27;;;7.30;99.90;;;;;;5221911;28;20186;-48
2022/11/12 00:22:10;;;;;;;10.30;4.53;;;7.20;99.90;;;;;;5224479;28;20237;-47
2022/11/12 00:24:40;;;;;;;7.07;4.60;;;7.20;99.90;;;;;;5222112;28;20566;-46
2022/11/12 00:27:11;;;;;;;4.83;4.30;;;7.20;99.90;;;;;;5222777;28;20291;-47
2022/11/12 00:29:42;;;;;;;5.53;4.60;;;7.20;99.90;;;;;;5226463;28;20182;-48
2022/11/12 00:32:13;;;;;;;5.60;3.83;;;7.20;99.90;;;;;;5225094;28;20182;-53
2022/11/12 00:34:43;;;;;;;4.80;3.57;;;7.20;99.90;;;;;;5222379;28;20211;-48
2022/11/12 00:37:15;;;;;;;5.60;3.33;;;7.30;99.90;;;;;;5230473;28;20512;-47
2022/11/12 00:39:46;;;;;;;5.00;3.70;;;7.20;99.90;;;;;;5231009;28;20183;-47
2022/11/12 00:42:16;;;;;;;5.67;4.57;;;7.20;99.90;;;;;;5246869;28;20429;-47
2022/11/12 00:44:48;;;;;;;6.43;4.83;;;7.20;99.90;;;;;;5228964;28;20548;-48
2022/11/12 00:47:19;;;;;;;7.53;5.87;;;7.20;99.90;;;;;;5226876;28;20679;-47
2022/11/12 00:49:50;;;;;;;7.63;5.80;;;7.20;99.90;;;;;;5229743;28;20433;-47
2022/11/12 00:52:20;;;;;;;7.27;5.47;;;7.20;99.90;;;;;;5227741;28;20286;-46
2022/11/12 00:54:51;;;;;;;6.73;6.00;;;7.10;99.90;;;;;;5238005;28;20183;-47
2022/11/12 00:57:22;;;;;;;6.07;5.47;;;7.10;99.90;;;;;;5224538;28;20551;-47
2022/11/12 00:59:52;;;;;;;13.57;6.50;;;7.10;99.90;;;;;;5223035;28;20663;-47
2022/11/12 01:02:23;;;;;;;10.00;7.60;;;7.20;99.90;;;;;;5224100;28;20263;-47
2022/11/12 01:04:53;;;;;;;8.53;5.40;;;7.10;99.90;;;;;;5229453;28;20175;-48
2022/11/12 01:07:24;;;;;;;5.33;4.30;;;7.20;99.90;;;;;;5228504;28;20199;-48
2022/11/12 01:09:54;;;;;;;4.63;4.10;;;7.10;99.90;;;;;;5226777;28;20186;-48
2022/11/12 01:12:25;;;;;;;3.70;3.40;;;7.20;99.90;;;;;;5235967;28;20182;-47
2022/11/12 01:14:56;;;;;;;6.10;3.80;;;7.20;99.90;;;;;;5223534;28;20337;-47
2022/11/12 01:17:27;;;;;;;6.90;3.47;;;7.20;99.90;;;;;;5223395;28;20218;-47
2022/11/12 01:19:57;;;;;;;6.00;4.23;;;7.10;99.90;;;;;;5229503;28;20272;-49
2022/11/12 01:22:28;;;;;;;4.20;3.07;;;7.20;99.90;;;;;;5228489;28;20472;-48
2022/11/12 01:24:59;;;;;;;2.70;2.50;;;7.30;99.90;;;;;;5226996;28;20187;-46
2022/11/12 01:27:29;;;;;;;3.47;3.17;;;7.30;99.90;;;;;;5227733;28;20202;-50
2022/11/12 01:30:00;;;;;;;3.13;2.70;;;7.30;99.90;;;;;;5228203;28;20712;-47
2022/11/12 01:32:34;;;;;;;3.43;3.10;;;7.30;99.90;;;;;;5240361;28;20278;-46
2022/11/12 01:35:05;;;;;;;6.13;4.40;;;7.20;99.90;;;;;;5221328;28;20654;-49
2022/11/12 01:37:36;;;;;;;4.23;3.30;;;7.30;99.90;;;;;;5229267;28;20479;-47
2022/11/12 01:40:07;;;;;;;5.10;3.10;;;7.30;99.90;;;;;;5229351;28;20265;-47
2022/11/12 01:42:38;;;;;;;5.90;2.80;;;7.30;99.90;;;;;;5225470;28;20183;-47
2022/11/12 01:45:16;;;;;;;3.03;2.73;;;7.40;99.90;;;;;;5230674;28;20975;-46
2022/11/12 01:47:50;;;;;;;3.70;2.97;;;7.50;99.90;;;;;;5230994;28;20205;-46
2022/11/12 01:50:26;;;;;;;3.03;2.83;;;7.50;99.90;;;;;;5228554;28;20445;-48
2022/11/12 01:53:05;;;;;;;3.63;2.40;;;7.50;99.90;;;;;;5229877;28;20468;-46
2022/11/12 01:55:36;;;;;;;5.23;2.80;;;7.60;99.90;;;;;;5229177;28;20790;-47
2022/11/12 01:58:11;;;;;;;2.70;2.37;;;7.70;99.90;;;;;;5228700;28;20483;-46
2022/11/12 02:00:42;;;;;;;6.20;2.73;;;7.80;99.90;;;;;;5228545;28;20432;-46
2022/11/12 02:03:20;;;;;;;2.87;2.67;;;7.70;99.90;;;;;;5226655;28;20419;-46
2022/11/12 02:05:57;;;;;;;10.00;3.17;;;7.80;99.90;;;;;;5223149;28;20241;-46
2022/11/12 02:08:29;;;;;;;2.60;2.40;;;7.80;99.90;;;;;;5223360;28;20430;-46
2022/11/12 02:11:12;;;;;;;3.10;2.90;;;7.80;99.90;;;;;;5228932;28;20451;-47
2022/11/12 02:13:57;;;;;;;5.93;3.03;;;7.90;99.90;;;;;;5229183;28;20519;-47
2022/11/12 02:16:30;;;;;;;5.40;2.77;;;7.80;99.90;;;;;;5226611;28;20480;-51
2022/11/12 02:19:01;;;;;;;2.90;2.70;;;7.80;99.90;;;;;;5229196;28;20441;-47
2022/11/12 02:21:32;;;;;;;3.03;2.50;;;7.70;99.90;;;;;;5230918;28;20517;-49
2022/11/12 02:24:12;;;;;;;3.60;3.17;;;7.70;99.90;;;;;;5241239;28;20466;-50
2022/11/12 02:26:50;;;;;;;2.90;2.70;;;7.70;99.90;;;;;;5226505;28;20207;-51
2022/11/12 02:29:21;;;;;;;4.80;3.70;;;7.70;99.90;;;;;;5228778;28;20452;-48
2022/11/12 02:31:52;;;;;;;9.20;3.57;;;7.70;99.90;;;;;;5224970;28;21050;-47
2022/11/12 02:34:22;;;;;;;4.20;3.17;;;7.70;99.90;;;;;;5215723;28;20433;-46
2022/11/12 02:36:53;;;;;;;5.00;2.63;;;7.60;99.90;;;;;;5223467;28;20220;-46
2022/11/12 02:39:23;;;;;;;2.83;2.40;;;7.50;99.90;;;;;;5227763;28;20171;-47
2022/11/12 02:41:54;;;;;;;3.50;3.03;;;7.50;99.90;;;;;;5219298;28;20238;-47
2022/11/12 02:44:25;;;;;;;2.60;2.40;;;7.50;99.90;;;;;;5226282;28;20190;-47
2022/11/12 02:46:56;;;;;;;3.27;2.97;;;7.50;99.90;;;;;;5225960;28;20213;-46
2022/11/12 02:49:26;;;;;;;2.63;2.40;;;7.50;99.90;;;;;;5227479;28;20198;-47
2022/11/12 02:51:57;;;;;;;3.23;3.00;;;7.50;99.90;;;;;;5225268;28;20194;-47
2022/11/12 02:54:27;;;;;;;3.10;2.77;;;7.40;99.90;;;;;;5227765;28;20568;-48
2022/11/12 02:56:58;;;;;;;3.83;3.47;;;7.40;99.90;;;;;;5224909;28;20221;-47
2022/11/12 02:59:29;;;;;;;4.83;2.40;;;7.30;99.90;;;;;;5220928;28;20218;-47
2022/11/12 03:01:59;;;;;;;4.30;3.27;;;7.30;99.90;;;;;;5226607;28;20181;-47
2022/11/12 03:04:30;;;;;;;7.50;3.53;;;7.30;99.90;;;;;;5218984;28;20171;-48
2022/11/12 03:07:00;;;;;;;9.30;3.20;;;7.30;99.90;;;;;;5221596;28;20285;-47
2022/11/12 03:09:31;;;;;;;4.10;3.17;;;7.20;99.90;;;;;;5220654;28;20211;-47
2022/11/12 03:12:02;;;;;;;3.33;3.03;;;7.20;99.90;;;;;;5222415;28;20207;-47
2022/11/12 03:14:33;;;;;;;5.33;3.27;;;7.10;99.90;;;;;;5220449;28;20195;-46
2022/11/12 03:17:04;;;;;;;11.63;3.40;;;7.10;99.90;;;;;;5226174;28;20214;-47
2022/11/12 03:19:34;;;;;;;6.20;2.80;;;7.10;99.90;;;;;;5223677;28;20636;-46
2022/11/12 03:22:05;;;;;;;3.10;2.90;;;7.00;99.90;;;;;;5226993;28;20419;-46
2022/11/12 03:24:35;;;;;;;4.33;3.13;;;7.00;99.90;;;;;;5222986;28;20651;-47
2022/11/12 03:27:06;;;;;;;4.23;3.00;;;6.90;99.90;;;;;;5224424;28;20677;-47
2022/11/12 03:29:37;;;;;;;3.80;2.87;;;6.90;99.90;;;;;;5220958;28;20193;-46
2022/11/12 03:32:07;;;;;;;4.53;2.77;;;6.90;99.90;;;;;;5224347;28;20193;-47
2022/11/12 03:34:38;;;;;;;2.70;2.47;;;6.80;99.90;;;;;;5225716;28;20297;-47
2022/11/12 03:37:09;;;;;;;2.13;2.03;;;6.80;99.90;;;;;;5224736;28;20206;-47
2022/11/12 03:39:39;;;;;;;4.50;3.10;;;6.70;99.90;;;;;;5218256;28;20179;-48
2022/11/12 03:42:10;;;;;;;5.20;2.77;;;6.70;99.90;;;;;;5218065;28;20441;-48
2022/11/12 03:44:41;;;;;;;3.70;3.20;;;6.50;99.90;;;;;;5227004;28;20639;-47
2022/11/12 03:47:11;;;;;;;2.83;2.60;;;6.50;99.90;;;;;;5224356;28;20219;-48
2022/11/12 03:49:42;;;;;;;2.30;2.20;;;6.50;99.90;;;;;;5219841;28;20179;-46
2022/11/12 03:52:12;;;;;;;2.80;2.70;;;6.40;99.90;;;;;;5220127;28;20191;-52
2022/11/12 03:54:43;;;;;;;2.93;2.73;;;6.40;99.90;;;;;;5226753;28;20187;-46
2022/11/12 03:57:13;;;;;;;4.17;3.17;;;6.40;99.90;;;;;;5225923;28;20681;-49
2022/11/12 03:59:44;;;;;;;2.87;2.40;;;6.30;99.90;;;;;;5215581;28;20190;-48
2022/11/12 04:02:15;;;;;;;3.37;2.67;;;6.30;99.90;;;;;;5224908;28;20654;-48
2022/11/12 04:10:23;;;;;;;2.97;2.77;;;6.20;99.90;;;;;;5213968;28;20928;-51
2022/11/12 04:24:04;;;;;;;2.87;2.67;;;6.20;99.90;;;;;;5220576;28;20471;-48
2022/11/12 04:26:35;;;;;;;2.50;2.30;;;6.20;99.90;;;;;;5216653;28;20445;-49
2022/11/12 04:31:55;;;;;;;3.20;3.00;;;6.10;99.90;;;;;;5212288;28;20186;-49
2022/11/12 04:34:28;;;;;;;2.67;2.30;;;6.10;99.90;;;;;;5225374;28;20929;-48
2022/11/12 04:37:01;;;;;;;2.60;2.40;;;6.10;99.90;;;;;;5209470;28;20211;-48
2022/11/12 04:39:32;;;;;;;3.13;2.13;;;6.10;99.90;;;;;;5208396;28;20452;-49
2022/11/12 04:44:58;;;;;;;2.87;2.63;;;6.10;99.90;;;;;;5222159;28;20209;-49
2022/11/12 04:47:32;;;;;;;2.77;2.57;;;6.10;99.90;;;;;;5222601;28;20964;-50
2022/11/12 04:50:06;;;;;;;2.70;2.50;;;6.00;99.90;;;;;;5208398;28;20473;-49
2022/11/12 04:52:37;;;;;;;3.17;2.83;;;5.90;99.90;;;;;;5221890;28;20434;-47
2022/11/12 04:55:09;;;;;;;2.73;2.57;;;6.00;99.90;;;;;;5200188;28;20436;-50
2022/11/12 04:57:40;;;;;;;5.80;3.17;;;5.90;99.90;;;;;;5208505;28;20460;-49
2022/11/12 05:00:12;;;;;;;3.37;2.60;;;5.90;99.90;;;;;;5208388;28;20461;-47
2022/11/12 05:02:42;;;;;;;4.00;3.03;;;5.90;99.90;;;;;;5221312;28;20190;-48
2022/11/12 05:05:13;;;;;;;2.60;2.50;;;5.90;99.90;;;;;;5200163;28;20429;-49
2022/11/12 05:07:44;;;;;;;6.50;3.70;;;5.90;99.90;;;;;;5221352;28;20203;-50
2022/11/12 05:10:15;;;;;;;2.53;2.43;;;5.80;99.90;;;;;;5233793;28;20194;-49
2022/11/12 05:12:45;;;;;;;2.87;2.67;;;5.80;99.90;;;;;;5196755;28;20307;-49
2022/11/12 05:15:16;;;;;;;2.50;2.30;;;5.80;99.90;;;;;;5207906;28;20528;-49
2022/11/12 05:17:47;;;;;;;5.53;3.23;;;5.70;99.90;;;;;;5232211;28;20221;-48
2022/11/12 05:20:18;;;;;;;3.20;2.90;;;5.70;99.90;;;;;;5209881;28;20268;-48
2022/11/12 05:22:49;;;;;;;3.97;3.63;;;5.80;99.90;;;;;;5206894;28;20183;-48
2022/11/12 05:25:19;;;;;;;3.60;2.67;;;5.70;99.90;;;;;;5242403;28;20430;-48
2022/11/12 05:27:50;;;;;;;3.73;2.90;;;5.70;99.90;;;;;;5222897;28;20206;-49
2022/11/12 05:30:21;;;;;;;3.10;2.90;;;5.70;99.90;;;;;;5205595;28;20258;-47
2022/11/12 05:32:52;;;;;;;4.90;2.70;;;5.70;99.90;;;;;;5218268;28;20199;-49
2022/11/12 05:35:22;;;;;;;4.90;3.23;;;5.70;99.90;;;;;;5192852;28;20191;-48
2022/11/12 05:37:53;;;;;;;3.87;3.37;;;5.70;99.90;;;;;;5214745;28;20579;-48
2022/11/12 05:40:24;;;;;;;2.37;2.27;;;5.70;99.90;;;;;;5217962;28;20245;-48
2022/11/12 05:42:54;;;;;;;3.13;2.93;;;5.70;99.90;;;;;;5242268;28;20185;-49
2022/11/12 05:45:25;;;;;;;3.50;3.30;;;5.70;99.90;;;;;;5226918;28;20210;-49
2022/11/12 05:47:56;;;;;;;3.37;2.63;;;5.60;99.90;;;;;;5229498;28;20653;-48
2022/11/12 05:50:27;;;;;;;4.07;3.30;;;5.60;99.90;;;;;;5222983;28;20187;-48
2022/11/12 05:52:57;;;;;;;3.23;3.03;;;5.70;99.90;;;;;;5222399;28;20237;-48
2022/11/12 05:55:28;;;;;;;7.10;3.80;;;5.60;99.90;;;;;;5223925;28;20190;-47
2022/11/12 05:58:04;;;;;;;5.67;3.50;;;5.60;99.90;;;;;;5219432;28;20264;-49
2022/11/12 06:00:37;;;;;;;3.47;3.17;;;5.60;99.90;;;;;;5211566;28;20185;-48
2022/11/12 06:03:10;;;;;;;5.10;3.90;;;5.60;99.90;;;;;;5204423;28;20433;-50
2022/11/12 06:05:40;;;;;;;4.30;3.20;;;5.60;99.90;;;;;;5226746;28;20775;-49
2022/11/12 06:08:11;;;;;;;3.00;2.70;;;5.60;99.90;;;;;;5202659;28;20461;-50
2022/11/12 06:10:47;;;;;;;4.60;3.00;;;5.60;99.90;;;;;;5222266;28;20729;-49
2022/11/12 06:13:19;;;;;;;3.53;3.17;;;5.60;99.90;;;;;;5210977;28;20181;-50
2022/11/12 06:15:51;;;;;;;2.50;2.30;;;5.50;99.90;;;;;;5227031;28;20841;-49
2022/11/12 06:18:23;;;;;;;4.30;3.10;;;5.50;99.90;;;;;;5210533;28;20876;-48
2022/11/12 06:21:18;;;;;;;2.77;2.57;;;5.50;99.90;;;;;;5223757;28;20445;-48
2022/11/12 06:23:52;;;;;;;4.10;3.53;;;5.50;99.90;;;;;;5210888;28;20433;-50
2022/11/12 06:26:25;;;;;;;4.03;3.70;;;5.50;99.90;;;;;;5228090;28;20457;-49
2022/11/12 06:28:56;;;;;;;3.90;3.67;;;5.60;99.90;;;;;;5218417;28;20516;-50
2022/11/12 06:31:27;;;;;;;3.83;3.53;;;5.60;99.90;;;;;;5226272;28;20421;-49
2022/11/12 06:33:58;;;;;;;4.23;3.90;;;5.50;99.90;;;;;;5210994;28;20587;-48
2022/11/12 06:36:28;;;;;;;5.43;3.90;;;5.60;99.90;;;;;;5210642;28;20213;-49
2022/11/12 06:38:59;;;;;;;5.10;4.13;;;5.70;99.90;;;;;;5206938;28;20185;-50
2022/11/12 06:41:30;;;;;;;5.07;3.77;;;5.70;99.90;;;;;;5222122;28;20186;-49
2022/11/12 06:44:03;;;;;;;4.07;3.67;;;5.80;99.90;;;;;;5221002;28;20239;-48
2022/11/12 06:46:34;;;;;;;5.43;4.37;;;5.80;99.90;;;;;;5224570;28;20199;-49
2022/11/12 06:49:05;;;;;;;5.77;4.87;;;5.80;99.90;;;;;;5210815;28;20440;-49
2022/11/12 06:51:38;;;;;;;10.83;4.60;;;5.90;99.90;;;;;;5209093;28;20847;-48
2022/11/12 06:54:09;;;;;;;6.43;4.30;;;6.00;99.90;;;;;;5225589;28;20464;-49
2022/11/12 06:56:40;;;;;;;12.37;4.07;;;6.00;99.90;;;;;;5202483;28;20508;-50
2022/11/12 06:59:10;;;;;;;4.27;3.40;;;6.10;99.90;;;;;;5216349;28;20188;-48
2022/11/12 07:01:41;;;;;;;9.80;5.00;;;6.20;99.90;;;;;;5225194;28;20189;-49
2022/11/12 07:04:12;;;;;;;10.50;4.03;;;6.30;99.90;;;;;;5217689;28;20618;-50
2022/11/12 07:06:43;;;;;;;4.20;3.80;;;6.50;99.90;;;;;;5227356;28;20251;-48
2022/11/12 07:09:14;;;;;;;6.00;4.23;;;6.60;99.90;;;;;;5219755;28;20540;-48
2022/11/12 07:11:45;;;;;;;5.30;3.43;;;6.70;99.90;;;;;;5196403;28;21026;-49
2022/11/12 07:14:15;;;;;;;7.70;4.57;;;6.80;99.90;;;;;;5240647;28;20269;-48
2022/11/12 07:16:46;;;;;;;5.97;3.50;;;7.00;99.90;;;;;;5225379;28;20225;-49
2022/11/12 07:19:17;;;;;;;5.50;3.83;;;7.10;99.90;;;;;;5227610;28;20425;-48
2022/11/12 07:21:48;;;;;;;4.20;3.67;;;7.40;99.90;;;;;;5205937;28;20225;-50
2022/11/12 07:24:18;;;;;;;3.97;3.53;;;7.60;99.90;;;;;;5209023;28;20174;-48
2022/11/12 07:26:49;;;;;;;5.10;3.90;;;7.70;99.90;;;;;;5200975;28;20203;-48
2022/11/12 07:29:20;;;;;;;4.60;3.87;;;7.80;99.90;;;;;;5205729;28;20270;-48
2022/11/12 07:31:51;;;;;;;7.10;4.23;;;7.90;99.90;;;;;;5235701;28;20663;-50
2022/11/12 07:34:22;;;;;;;5.80;4.00;;;8.10;99.90;;;;;;5217563;28;20663;-50
2022/11/12 07:36:52;;;;;;;5.93;3.63;;;8.20;99.90;;;;;;5225890;28;20293;-49
2022/11/12 07:39:23;;;;;;;5.63;3.77;;;8.40;99.90;;;;;;5223693;28;20175;-50
2022/11/12 07:41:54;;;;;;;4.03;3.40;;;8.50;99.90;;;;;;5208085;28;20222;-50
2022/11/12 07:44:25;;;;;;;7.70;4.40;;;8.60;99.90;;;;;;5220690;28;20193;-49
2022/11/12 07:46:56;;;;;;;5.53;3.47;;;8.70;99.90;;;;;;5205726;28;20202;-51
2022/11/12 07:49:27;;;;;;;5.60;4.17;;;8.80;99.90;;;;;;5224564;28;20553;-50
2022/11/12 07:51:57;;;;;;;4.43;3.80;;;8.90;99.90;;;;;;5208407;28;20252;-49
2022/11/12 07:54:28;;;;;;;2.90;2.70;;;9.00;99.90;;;;;;5207012;28;20438;-51
2022/11/12 07:56:59;;;;;;;3.53;3.20;;;9.10;99.90;;;;;;5208074;28;20238;-51
2022/11/12 07:59:30;;;;;;;6.40;3.63;;;9.10;99.90;;;;;;5208048;28;20178;-50
2022/11/12 08:02:00;;;;;;;4.33;3.93;;;9.10;99.90;;;;;;5205443;28;20709;-49
2022/11/12 08:04:31;;;;;;;7.80;4.43;;;9.10;99.90;;;;;;5217877;28;20183;-50
2022/11/12 08:07:02;;;;;;;9.50;4.00;;;9.20;99.90;;;;;;5222291;28;20210;-50
2022/11/12 08:09:32;;;;;;;3.53;3.20;;;9.20;99.90;;;;;;5207970;28;20269;-49
2022/11/12 08:12:03;;;;;;;3.67;3.40;;;9.20;99.90;;;;;;5214536;28;20488;-49
2022/11/12 08:14:34;;;;;;;5.70;4.10;;;9.30;99.90;;;;;;5207593;28;20442;-48
2022/11/12 08:17:05;;;;;;;5.80;3.70;;;9.40;99.90;;;;;;5206392;28;20265;-50
2022/11/12 08:19:35;;;;;;;9.67;4.60;;;9.40;99.90;;;;;;5216211;28;20265;-49
2022/11/12 08:22:06;;;;;;;9.33;5.37;;;9.40;99.90;;;;;;5221723;28;20193;-49
2022/11/12 08:24:37;;;;;;;5.40;4.20;;;9.50;99.90;;;;;;5212902;28;20182;-49
2022/11/12 08:27:08;;;;;;;6.93;4.50;;;9.60;99.90;;;;;;5197531;28;20199;-50
2022/11/12 08:29:39;;;;;;;5.60;3.87;;;9.80;99.90;;;;;;5222674;28;20682;-48
2022/11/12 08:32:09;;;;;;;8.87;5.03;;;9.90;99.90;;;;;;5221769;28;20183;-49
2022/11/12 08:34:42;;;;;;;6.90;4.00;;;9.90;99.90;;;;;;5219223;28;20567;-49
2022/11/12 08:37:13;;;;;;;5.00;4.33;;;9.80;99.90;;;;;;5207860;28;20221;-50
2022/11/12 08:39:44;;;;;;;5.93;4.80;;;9.80;99.90;;;;;;5225098;28;20433;-50
2022/11/12 08:42:14;;;;;;;4.47;4.03;;;9.80;99.90;;;;;;5207423;28;20186;-49
2022/11/12 08:44:45;;;;;;;5.77;4.70;;;9.90;99.90;;;;;;5190845;28;20236;-49
2022/11/12 08:47:16;;;;;;;4.43;4.03;;;9.80;99.90;;;;;;5216331;28;20253;-49
2022/11/12 08:49:46;;;;;;;4.57;4.20;;;9.90;99.90;;;;;;5208323;28;20670;-48
2022/11/12 08:52:17;;;;;;;12.90;5.53;;;9.90;99.90;;;;;;5233646;28;20187;-50
2022/11/12 08:54:48;;;;;;;4.93;4.37;;;9.90;99.90;;;;;;5218476;28;20674;-49
2022/11/12 08:57:18;;;;;;;5.10;4.63;;;10.00;99.90;;;;;;5208254;28;20207;-48
2022/11/12 08:59:49;;;;;;;6.57;3.80;;;10.00;99.90;;;;;;5219113;28;20214;-48
2022/11/12 09:02:21;;;;;;;5.87;4.33;;;10.10;99.90;;;;;;5211125;28;20236;-48
2022/11/12 09:04:51;;;;;;;5.60;4.13;;;10.20;99.90;;;;;;5225336;28;20171;-50
2022/11/12 09:07:22;;;;;;;10.60;6.77;;;10.30;99.90;;;;;;5213557;28;20440;-51
2022/11/12 09:09:53;;;;;;;9.53;5.87;;;10.50;99.90;;;;;;5222770;28;20186;-48
2022/11/12 09:12:24;;;;;;;12.50;7.57;;;10.90;99.90;;;;;;5207604;28;20443;-48
2022/11/12 09:14:55;;;;;;;15.23;7.40;;;11.00;99.90;;;;;;5212436;28;20426;-49
2022/11/12 09:17:28;;;;;;;6.80;6.10;;;11.30;99.90;;;;;;5212253;28;20210;-47
2022/11/12 09:19:58;;;;;;;8.73;6.17;;;11.60;99.90;;;;;;5215446;28;20175;-50
2022/11/12 09:22:32;;;;;;;10.30;6.43;;;11.80;99.90;;;;;;5245704;28;21045;-49
2022/11/12 09:25:03;;;;;;;5.60;5.10;;;12.10;99.90;;;;;;5222343;28;20214;-48
2022/11/12 09:27:33;;;;;;;6.67;5.40;;;12.10;99.90;;;;;;5198098;28;20496;-49
2022/11/12 09:30:05;;;;;;;11.57;6.60;;;12.00;99.90;;;;;;5214072;28;20274;-47
2022/11/12 09:32:36;;;;;;;10.17;6.97;;;11.90;99.90;;;;;;5223306;28;20238;-52
2022/11/12 09:35:07;;;;;;;11.93;7.70;;;11.70;99.90;;;;;;5225958;28;20421;-51
2022/11/12 09:37:38;;;;;;;8.67;6.73;;;11.70;99.90;;;;;;5203552;28;20580;-49
2022/11/12 09:40:17;;;;;;;9.47;6.60;;;11.60;99.90;;;;;;5196663;28;20433;-47
2022/11/12 09:42:54;;;;;;;8.83;6.60;;;11.60;99.90;;;;;;5213076;28;20179;-48
2022/11/12 09:45:30;;;;;;;23.63;6.40;;;11.50;99.90;;;;;;5224581;28;21064;-47
2022/11/12 09:48:07;;;;;;;10.77;6.47;;;11.60;99.90;;;;;;5235193;28;20483;-48
2022/11/12 09:51:09;;;;;;;15.00;7.60;;;11.60;99.90;;;;;;5203869;28;20438;-54
2022/11/12 09:53:53;;;;;;;15.03;8.43;;;11.60;99.90;;;;;;5195880;28;20437;-48
2022/11/12 09:56:27;;;;;;;16.20;6.77;;;11.70;99.90;;;;;;5225693;28;20465;-47
2022/11/12 09:58:58;;;;;;;6.17;5.57;;;11.70;99.90;;;;;;5211991;28;20429;-48
2022/11/12 10:01:29;;;;;;;23.00;6.63;;;11.80;99.90;;;;;;5228295;28;20917;-48
2022/11/12 10:04:12;;;;;;;10.30;7.10;;;11.80;99.90;;;;;;5207085;28;20437;-50
2022/11/12 10:07:01;;;;;;;8.90;5.77;;;11.80;99.90;;;;;;5218769;28;20206;-49
2022/11/12 10:10:02;;;;;;;12.47;7.10;;;11.90;99.90;;;;;;5211595;28;20498;-47
2022/11/12 10:12:58;;;;;;;13.23;5.93;;;11.90;99.90;;;;;;5217460;28;20951;-50
2022/11/12 10:19:07;;;;;;;6.77;5.40;;;12.00;99.90;;;;;;5216940;28;20445;-49
2022/11/12 10:22:03;;;;;;;6.43;5.30;;;12.10;99.90;;;;;;5167321;28;20430;-49
2022/11/12 10:24:36;;;;;;;9.50;6.27;;;12.20;99.90;;;;;;5205866;28;20428;-51
2022/11/12 10:27:27;;;;;;;12.13;6.57;;;12.30;99.90;;;;;;5213884;28;21070;-50
2022/11/12 10:30:06;;;;;;;9.37;7.23;;;12.30;99.90;;;;;;5227026;28;20444;-48
2022/11/12 10:32:37;;;;;;;10.57;6.87;;;12.30;99.90;;;;;;5210603;28;20434;-51
2022/11/12 10:35:08;;;;;;;8.47;5.80;;;12.30;99.90;;;;;;5222936;28;20420;-50
2022/11/12 10:38:05;;;;;;;10.53;6.50;;;12.40;99.90;;;;;;5227114;28;20789;-47
2022/11/12 10:40:38;;;;;;;20.30;7.20;;;12.40;99.90;;;;;;5224628;28;20545;-50
2022/11/12 10:43:15;;;;;;;8.40;5.30;;;12.50;99.90;;;;;;5210111;28;20922;-50
2022/11/12 10:45:48;;;;;;;10.70;5.93;;;12.50;99.90;;;;;;5206028;28;20438;-51
2022/11/12 10:48:27;;;;;;;7.43;4.87;;;12.50;99.90;;;;;;5206352;28;20437;-51
2022/11/12 10:50:59;;;;;;;7.53;5.60;;;12.60;99.90;;;;;;5204016;28;20526;-49
2022/11/12 10:53:33;;;;;;;13.90;7.03;;;12.70;99.90;;;;;;5224594;28;20434;-50
2022/11/12 10:56:22;;;;;;;8.77;5.83;;;12.80;99.90;;;;;;5223979;28;20785;-50
2022/11/12 10:59:28;;;;;;;8.97;7.00;;;13.00;99.90;;;;;;5227728;28;20509;-49
2022/11/12 11:02:00;;;;;;;10.10;6.33;;;13.10;99.90;;;;;;5121813;28;20893;-50
2022/11/12 11:04:34;;;;;;;15.30;8.30;;;13.20;99.90;;;;;;5192177;28;20441;-50
2022/11/12 11:07:26;;;;;;;11.70;7.03;;;13.20;99.90;;;;;;5209600;28;20463;-49
2022/11/12 11:09:59;;;;;;;8.00;5.93;;;13.20;99.90;;;;;;5221833;28;20441;-50
2022/11/12 11:12:32;;;;;;;13.77;6.80;;;13.30;99.90;;;;;;5182618;28;20434;-49
2022/11/12 11:15:14;;;;;;;10.67;7.00;;;13.30;99.90;;;;;;5216427;28;20991;-51
2022/11/12 11:17:45;;;;;;;11.90;6.30;;;13.40;99.90;;;;;;5221648;28;20466;-50
2022/11/12 11:20:54;;;;;;;9.07;5.00;;;13.40;99.90;;;;;;5211225;28;20411;-50
2022/11/12 11:23:32;;;;;;;13.93;6.90;;;13.40;99.90;;;;;;5184611;28;20953;-51
2022/11/12 11:26:50;;;;;;;8.33;4.87;;;13.40;99.90;;;;;;5235238;28;20420;-49
2022/11/12 11:29:59;;;;;;;7.23;6.53;;;13.50;99.90;;;;;;5156022;28;20422;-50
2022/11/12 11:32:56;;;;;;;11.30;5.93;;;13.50;99.90;;;;;;5212504;28;20421;-50
2022/11/12 11:35:44;;;;;;;9.53;6.00;;;13.30;99.90;;;;;;5240073;28;20567;-48
2022/11/12 11:39:05;;;;;;;17.93;6.40;;;13.20;99.90;;;;;;5204167;28;20552;-48
2022/11/12 11:41:42;;;;;;;10.87;4.90;;;13.10;99.90;;;;;;5166599;28;20466;-51
2022/11/12 11:44:28;;;;;;;6.40;4.70;;;12.90;99.90;;;;;;5227726;28;20425;-54
2022/11/12 11:47:20;;;;;;;7.50;5.00;;;13.00;99.90;;;;;;5197060;28;20544;-50
2022/11/12 11:50:09;;;;;;;9.70;5.03;;;12.90;99.90;;;;;;5224417;28;20835;-49
2022/11/12 11:53:00;;;;;;;9.30;5.63;;;12.90;99.90;;;;;;5207755;28;20493;-53
2022/11/12 11:55:32;;;;;;;9.30;5.23;;;13.00;99.90;;;;;;5222911;28;20502;-50
2022/11/12 11:58:17;;;;;;;5.57;4.97;;;13.10;99.90;;;;;;5206234;28;20868;-50
2022/11/12 12:01:13;;;;;;;7.00;5.43;;;13.20;99.90;;;;;;5222407;28;20611;-48
2022/11/12 12:03:44;;;;;;;9.53;4.40;;;13.20;99.90;;;;;;5209065;28;20786;-50
2022/11/12 12:06:25;;;;;;;8.93;5.20;;;13.30;99.90;;;;;;5220416;28;20453;-47
2022/11/12 12:09:02;;;;;;;5.60;4.10;;;13.40;99.90;;;;;;5207110;28;20184;-48
2022/11/12 12:11:44;;;;;;;6.50;5.03;;;13.40;99.90;;;;;;5225407;28;20466;-47
2022/11/12 12:14:40;;;;;;;9.00;4.90;;;13.50;99.90;;;;;;5194381;28;20436;-49
2022/11/12 12:17:40;;;;;;;9.10;5.23;;;13.50;99.90;;;;;;5222326;28;20472;-48
2022/11/12 12:20:14;;;;;;;14.53;6.10;;;13.50;99.90;;;;;;5220277;28;20445;-51
2022/11/12 12:22:55;;;;;;;8.67;5.50;;;13.50;99.90;;;;;;5210186;28;20514;-49
2022/11/12 12:25:34;;;;;;;9.73;5.63;;;13.50;99.90;;;;;;5219466;28;20970;-48
2022/11/12 12:28:33;;;;;;;6.10;5.50;;;13.50;99.90;;;;;;5212212;28;20876;-49
2022/11/12 12:31:10;;;;;;;6.67;5.40;;;13.50;99.90;;;;;;5223027;28;20456;-48
2022/11/12 12:33:45;;;;;;;10.90;7.07;;;13.50;99.90;;;;;;5211946;28;20437;-49
2022/11/12 12:36:37;;;;;;;8.20;5.50;;;13.30;99.90;;;;;;5225298;28;20901;-48
2022/11/12 12:39:16;;;;;;;15.40;5.77;;;13.20;99.90;;;;;;5217644;28;20489;-48
2022/11/12 12:42:01;;;;;;;15.10;6.60;;;13.10;99.90;;;;;;5243237;28;20543;-50
2022/11/12 12:45:21;;;;;;;8.07;5.40;;;13.00;99.90;;;;;;5225782;28;20530;-51
2022/11/12 12:47:54;;;;;;;15.93;6.83;;;13.00;99.90;;;;;;5209240;28;20462;-50
2022/11/12 12:50:26;;;;;;;11.20;6.57;;;12.90;99.90;;;;;;5234556;28;20746;-49
2022/11/12 12:53:14;;;;;;;9.70;5.20;;;13.00;99.90;;;;;;5221678;28;20538;-51
2022/11/12 12:55:48;;;;;;;11.10;5.83;;;12.90;99.90;;;;;;5218704;28;20464;-48
2022/11/12 12:58:29;;;;;;;9.07;5.70;;;12.80;99.90;;;;;;5228989;28;20503;-48
2022/11/12 13:01:21;;;;;;;8.10;5.43;;;12.70;99.90;;;;;;5213683;28;20456;-50
2022/11/12 13:04:03;;;;;;;7.17;4.23;;;12.70;99.90;;;;;;5211850;28;20543;-49
2022/11/12 13:06:38;;;;;;;16.40;6.17;;;12.60;99.90;;;;;;5194596;28;20545;-49
2022/11/12 13:09:12;;;;;;;8.87;6.60;;;12.70;99.90;;;;;;5225923;28;20443;-51
2022/11/12 13:14:34;;;;;;;13.33;5.70;;;12.70;99.90;;;;;;5233433;28;20459;-48
2022/11/12 13:17:12;;;;;;;12.17;6.90;;;12.60;99.90;;;;;;5213887;28;20484;-50
2022/11/12 13:20:06;;;;;;;15.23;7.47;;;12.60;99.90;;;;;;5224655;28;20437;-49
2022/11/12 13:22:37;;;;;;;11.43;6.50;;;12.60;99.90;;;;;;5230426;28;20434;-49
2022/11/12 13:25:10;;;;;;;8.40;5.67;;;12.50;99.90;;;;;;5240160;28;20521;-51
2022/11/12 13:27:44;;;;;;;5.53;5.03;;;12.60;99.90;;;;;;5198946;28;20211;-48
2022/11/12 13:30:20;;;;;;;9.87;5.07;;;12.50;99.90;;;;;;5211395;28;20430;-48
2022/11/12 13:32:51;;;;;;;7.67;4.60;;;12.50;99.90;;;;;;5226531;28;20472;-49
2022/11/12 13:35:31;;;;;;;6.50;4.50;;;12.50;99.90;;;;;;5212109;28;20501;-51
2022/11/12 13:38:06;;;;;;;9.30;5.10;;;12.50;99.90;;;;;;5227424;28;20218;-50
2022/11/12 13:40:49;;;;;;;11.43;4.93;;;12.50;99.90;;;;;;5212955;28;20448;-57
2022/11/12 13:43:37;;;;;;;5.97;4.47;;;12.50;99.90;;;;;;5219172;28;20442;-49
2022/11/12 13:46:31;;;;;;;6.13;4.80;;;12.50;99.90;;;;;;5212249;28;20493;-48
2022/11/12 13:49:14;;;;;;;7.70;5.73;;;12.40;99.90;;;;;;5199882;28;20463;-51
2022/11/12 13:51:47;;;;;;;9.27;5.70;;;12.40;99.90;;;;;;5223523;28;20453;-49
2022/11/12 13:54:37;;;;;;;8.77;5.47;;;12.40;99.90;;;;;;5208691;28;20465;-48
2022/11/12 13:57:14;;;;;;;18.23;6.93;;;12.40;99.90;;;;;;5227738;28;20520;-50
2022/11/12 13:59:48;;;;;;;18.50;7.70;;;12.40;99.90;;;;;;5229444;28;20426;-50